Airfield :
LOGIN :

Register | Disclaimer

   EN    FR    IT 

 










Legend :    VFR   Marginal VFR   IFR   Intensive IFR   Very Intensive IFR
Visi :
Ceiling :
>= 8 km
>= 3000ft
5 to 8 km
1000 to 3000 ft
1500m to 5 km
500 to 1000 ft
800 to 1500m
200 to 500 ft
< 800m
< 200 ft
Symbols :   Thunderstorms  Fog  Heavy snow  Heavy precipitations  Wind > 20 kt
SIGMETs :     Misc.  Thunderstorms  Icing  Turbulence  Mountain Waves  Volcanic Ashes







- Airport Elevation : 23 ft
- IATA code : XFW


EDHI - Hamburg Finkenwerder

CURRENT METAR :
  • 151120Z 08004KT 040V110 CAVOK 22/11 Q1012

EXPIRED METARs :
  • 151050Z 07004KT 020V120 CAVOK 21/11 Q1012
  • 151020Z 06004KT 030V100 CAVOK 19/10 Q1012
  • 150950Z 09004KT 020V140 CAVOK 18/10 Q1012
  • 150920Z 09004KT 060V120 CAVOK 17/10 Q1012
  • 150850Z 09004KT 050V130 CAVOK 16/09 Q1012

TAF TAF EDHI
Valid from the 15 at 12:00 until the 15 at 21:00 UTC


151100Z 1512/1521 18005KT CAVOK
BECMG 1516/1518 VRB02KT
No reported NOTAMs for that airfield.



MET'MAP, your aeronautical weather chart ! - Copyright ORBIFLY December 2007 - Disclaimer

ORBIFLY MET'MAP TEAM :

Programming & Development : Alexandra Zaïnal
Concept & Development : Baudouin d'Aumeries
Co-Development & Prog : Marc-Olivier Méhu
Technical & hardware support : Manuel Goepfert

Contact : metmap@orbifly.com




SOURCES & CREDITS :

   NOAA